Terminal Aerodrome Forecast
Issued by NWS Corpus Christi, TX

Home | Current Version | Previous Version | Text Only | Print | Product List | Glossary On
Versions: 1 2 3 4 5 6 7 8 9 10 11 12 13 14 15 16 17 18 19 20 21 22 23 24 25 26 27 28 29 30 31 32 33 34 35 36
000
FTUS44 KCRP 261731
TAFCRP
TAF
KCRP 261731Z 2618/2718 14008KT 5SM BR BKN008
     FM261900 13012KT P6SM BKN015
     FM270200 14010KT 5SM BR OVC008
     FM271100 04012KT 5SM BR OVC008
     FM271500 33015G22KT 6SM BR OVC015=

USA.gov is the U.S. government's official web portal to all federal, state and local government web resources and services.